Terminal Aerodrome Forecast
Issued by NWS

Home | Current Version | Previous Version | Text Only | Print | Product List | Glossary On
Versions: 1 2 3 4 5 6 7 8 9 10 11 12 13 14 15 16 17 18
000
FTUS41 KBOX 241120
TAFACK
TAF
KACK 241120Z 2412/2512 20006KT P6SM OVC120
     FM241500 20015G28KT P6SM OVC090
     FM242300 21016G25KT P6SM OVC060
     FM250300 25017KT P6SM BKN040=

USA.gov is the U.S. government's official web portal to all federal, state and local government web resources and services.